Terminal Aerodrome Forecast
Issued by NWS Goodland, KS

Home | Current Version | Previous Version | Text Only | Print | Product List | Glossary On
Versions: 1 2 3 4 5 6 7 8 9 10 11 12 13 14
000
FTUS43 KGLD 211729
TAFGLD
TAF
KGLD 211729Z 2118/2218 36012G22KT P6SM SKC
     FM212300 02008KT P6SM SKC
     FM220700 20007KT P6SM FEW250
     FM221500 24008KT P6SM FEW250=

USA.gov is the U.S. government's official web portal to all federal, state and local government web resources and services.